Time;durP1;ratioP1;P1;durP2;ratioP2;P2;SDS_P1;SDS_P2;PMS_P1;PMS_P2;Temp;Humidity;BMP_temperature;BMP_pressure;BME280_temperature;BME280_humidity;BME280_pressure;Samples;Min_cycle;Max_cycle;Signal;HPM_P1;HPM_P2
2024/03/03 00:00:50;;;;;;;;;46.00;36.00;;;;;8.61;100.00;99135.44;6280001;20;3607583;-45
2024/03/03 00:03:19;;;;;;;;;48.33;42.00;;;;;8.44;100.00;99123.09;6308555;20;2867087;-48
2024/03/03 00:05:48;;;;;;;;;37.50;34.50;;;;;8.48;100.00;99124.66;6311242;20;2665908;-50
2024/03/03 00:08:18;;;;;;;;;47.00;40.67;;;;;8.71;100.00;99115.16;6309309;20;2854542;-49
2024/03/03 00:10:47;;;;;;;;;48.67;39.67;;;;;8.69;100.00;99118.88;6310863;20;2858669;-47
2024/03/03 00:13:17;;;;;;;;;49.00;40.00;;;;;8.82;100.00;99122.53;6310715;20;3613835;-45
2024/03/03 00:15:46;;;;;;;;;47.33;38.00;;;;;8.61;100.00;99129.22;6312850;20;3594038;-47
2024/03/03 00:18:15;;;;;;;;;48.67;38.33;;;;;8.67;100.00;99123.50;6278154;20;2867112;-48
2024/03/03 00:20:45;;;;;;;;;49.00;39.33;;;;;8.65;100.00;99120.06;6309107;20;2860879;-51
2024/03/03 00:23:14;;;;;;;;;44.67;37.00;;;;;8.77;100.00;99124.66;6311153;20;2863825;-49
2024/03/03 00:25:43;;;;;;;;;46.00;39.00;;;;;8.56;100.00;99116.16;6309086;20;2854434;-46
2024/03/03 00:28:12;;;;;;;;;50.00;41.00;;;;;8.42;100.00;99121.47;6276385;20;2854575;-50
2024/03/03 00:30:41;;;;;;;;;53.33;42.67;;;;;8.35;100.00;99112.97;6278492;20;2868016;-48
2024/03/03 00:33:10;;;;;;;;;51.00;43.00;;;;;8.50;100.00;99109.34;6310094;20;2854591;-50
2024/03/03 00:35:40;;;;;;;;;53.67;43.33;;;;;8.66;100.00;99116.41;6276912;20;3629403;-46
2024/03/03 00:38:10;;;;;;;;;51.33;42.67;;;;;8.60;100.00;99103.44;6309435;20;2856688;-45
2024/03/03 00:40:43;;;;;;;;;50.67;42.00;;;;;8.47;100.00;99108.69;6309493;20;2860704;-48
2024/03/03 00:43:13;;;;;;;;;51.00;42.67;;;;;8.66;100.00;99113.72;6309679;20;2858667;-46
2024/03/03 00:45:43;;;;;;;;;52.67;43.67;;;;;8.82;100.00;99110.94;6309846;20;2903514;-51
2024/03/03 00:48:12;;;;;;;;;55.00;46.00;;;;;8.85;100.00;99108.94;6304701;20;3623225;-49
2024/03/03 00:50:41;;;;;;;;;49.00;41.00;;;;;8.67;100.00;99107.44;6310145;20;2846217;-48
2024/03/03 00:53:11;;;;;;;;;58.33;45.67;;;;;8.69;100.00;99108.19;6276999;20;3626461;-52
2024/03/03 00:55:46;;;;;;;;;56.00;46.00;;;;;8.49;100.00;99107.63;6310063;20;3599254;-47
2024/03/03 00:58:16;;;;;;;;;54.00;44.33;;;;;8.36;100.00;99103.97;6308520;20;3610723;-48
2024/03/03 01:00:46;;;;;;;;;55.00;45.00;;;;;8.40;100.00;99104.66;6307598;20;2856596;-49
2024/03/03 01:03:15;;;;;;;;;56.33;46.33;;;;;8.25;100.00;99090.41;6306131;20;3616921;-48
2024/03/03 01:05:45;;;;;;;;;59.67;48.67;;;;;8.33;100.00;99088.13;6308923;20;3614957;-47
2024/03/03 01:08:14;;;;;;;;;60.00;48.33;;;;;8.37;100.00;99089.63;6306458;20;3630490;-46
2024/03/03 01:10:44;;;;;;;;;56.33;43.33;;;;;8.40;100.00;99094.84;6307954;20;3620109;-46
2024/03/03 01:13:12;;;;;;;;;51.00;41.00;;;;;8.53;100.00;99100.25;6310904;20;3590951;-47
2024/03/03 01:15:42;;;;;;;;;50.33;39.33;;;;;8.53;100.00;99098.47;6277219;20;2837919;-48
2024/03/03 01:18:12;;;;;;;;;50.00;40.50;;;;;8.37;100.00;99094.97;6308689;20;2854856;-46
2024/03/03 01:20:41;;;;;;;;;49.00;40.67;;;;;8.24;100.00;99088.66;6278384;20;2854487;-46
2024/03/03 01:23:13;;;;;;;;;51.33;42.00;;;;;8.41;100.00;99093.88;6306879;20;3601519;-45
2024/03/03 01:25:43;;;;;;;;;49.50;41.00;;;;;8.54;100.00;99092.16;6308085;20;2839895;-48
2024/03/03 01:28:12;;;;;;;;;51.50;42.00;;;;;8.41;100.00;99093.88;6277705;20;2853425;-46
2024/03/03 01:30:42;;;;;;;;;56.67;43.00;;;;;8.13;100.00;99092.84;6276026;20;3629454;-46
2024/03/03 01:33:11;;;;;;;;;50.00;42.67;;;;;8.09;100.00;99080.66;6309382;20;2860970;-46
2024/03/03 01:35:41;;;;;;;;;53.00;45.00;;;;;8.00;100.00;99081.19;6308650;20;3615991;-47
2024/03/03 01:38:10;;;;;;;;;51.00;42.00;;;;;8.25;100.00;99085.91;6309076;20;2849236;-48
2024/03/03 01:40:38;;;;;;;;;53.00;43.00;;;;;8.29;100.00;99078.53;6277346;20;2851340;-47
2024/03/03 01:43:07;;;;;;;;;51.00;42.00;;;;;8.32;100.00;99079.22;6276239;20;2861793;-46
2024/03/03 01:45:37;;;;;;;;;54.00;43.00;;;;;8.43;100.00;99073.25;6275967;20;2874393;-45
2024/03/03 01:48:06;;;;;;;;;51.00;42.00;;;;;8.24;100.00;99080.63;6308170;20;2859733;-46
2024/03/03 01:50:37;;;;;;;;;49.00;41.00;;;;;8.24;100.00;99072.63;6274197;20;2852366;-46
2024/03/03 01:53:07;;;;;;;;;50.50;41.00;;;;;8.13;100.00;99073.28;6273987;20;2855492;-46
2024/03/03 01:55:37;;;;;;;;;51.33;41.67;;;;;8.04;100.00;99069.38;6276669;20;2865979;-46
2024/03/03 01:58:08;;;;;;;;;50.50;41.00;;;;;8.26;100.00;99073.38;6302286;20;2850315;-46
2024/03/03 02:00:38;;;;;;;;;53.67;43.33;;;;;8.22;100.00;99070.06;6273114;20;2870153;-47
2024/03/03 02:03:09;;;;;;;;;51.00;41.67;;;;;8.20;100.00;99071.09;6300855;20;2858625;-47
2024/03/03 02:05:39;;;;;;;;;49.00;40.00;;;;;8.00;100.00;99059.81;6308514;20;3602409;-46
2024/03/03 02:08:10;;;;;;;;;53.00;42.67;;;;;8.34;100.00;99068.41;6304890;20;2862878;-49
2024/03/03 02:10:39;;;;;;;;;49.67;40.00;;;;;8.07;100.00;99066.50;6307627;20;2859715;-46
2024/03/03 02:13:08;;;;;;;;;50.00;41.50;;;;;8.39;100.00;99065.47;6303227;20;2840963;-46
2024/03/03 02:15:36;;;;;;;;;50.00;42.00;;;;;8.09;100.00;99063.75;6275819;20;2566970;-47
2024/03/03 02:18:07;;;;;;;;;47.00;38.00;;;;;8.13;100.00;99065.25;6274395;20;2850319;-47
2024/03/03 02:20:36;;;;;;;;;45.00;38.33;;;;;8.00;100.00;99054.47;6307945;20;2867063;-45
2024/03/03 02:23:06;;;;;;;;;49.33;38.67;;;;;7.85;100.00;99056.28;6304022;20;2864868;-47
2024/03/03 02:25:39;;;;;;;;;44.67;38.33;;;;;7.99;100.00;99047.41;6307419;20;3595077;-46
2024/03/03 02:28:09;;;;;;;;;51.00;40.00;;;;;7.91;100.00;99049.69;6273650;20;2847216;-46
2024/03/03 02:30:37;;;;;;;;;45.00;38.50;;;;;8.26;100.00;99047.50;6271059;20;2496215;-47
2024/03/03 02:33:06;;;;;;;;;49.33;39.33;;;;;8.44;100.00;99058.91;6276695;20;3580714;-46
2024/03/03 02:35:35;;;;;;;;;41.50;35.50;;;;;7.97;100.00;99053.78;6272245;20;2857100;-45
2024/03/03 02:38:04;;;;;;;;;42.00;36.50;;;;;8.02;100.00;99051.69;6275338;20;2850335;-48
2024/03/03 02:40:32;;;;;;;;;46.50;37.50;;;;;7.80;100.00;99038.81;6275350;20;2855507;-46
2024/03/03 02:43:04;;;;;;;;;50.00;40.00;;;;;7.89;100.00;99043.56;6276113;20;2851323;-46
2024/03/03 02:45:33;;;;;;;;;47.67;39.33;;;;;8.03;100.00;99053.41;6276784;20;3584692;-45
2024/03/03 02:48:03;;;;;;;;;42.00;36.67;;;;;7.85;100.00;99044.72;6276062;20;3621172;-46
2024/03/03 02:50:33;;;;;;;;;48.33;38.00;;;;;7.91;100.00;99050.53;6306695;20;3605499;-45
2024/03/03 02:53:02;;;;;;;;;44.50;39.00;;;;;8.24;100.00;99056.56;6308425;20;2851305;-47
2024/03/03 02:55:31;;;;;;;;;35.00;33.00;;;;;7.86;100.00;99051.78;6276175;20;3583689;-47
2024/03/03 02:58:00;;;;;;;;;42.67;32.67;;;;;7.53;100.00;99052.88;6272284;20;3633617;-47
2024/03/03 03:00:30;;;;;;;;;42.33;36.67;;;;;7.76;100.00;99050.63;6305660;20;3587787;-47
2024/03/03 03:02:59;;;;;;;;;51.50;40.50;;;;;7.75;100.00;99041.75;6270795;20;2856521;-45
2024/03/03 03:05:27;;;;;;;;;45.67;35.00;;;;;7.77;100.00;99039.00;6279792;20;3620060;-47
2024/03/03 03:07:57;;;;;;;;;43.33;37.00;;;;;7.55;100.00;99034.91;6279298;20;2854450;-46
2024/03/03 03:10:26;;;;;;;;;40.67;36.00;;;;;7.77;100.00;99039.00;6312998;20;3614861;-46
2024/03/03 03:12:55;;;;;;;;;45.00;39.00;;;;;7.61;100.00;99045.25;6278834;20;2856658;-47
2024/03/03 03:15:23;;;;;;;;;47.00;37.00;;;;;7.49;100.00;99037.97;6279102;20;2854532;-47
2024/03/03 03:17:53;;;;;;;;;45.67;37.67;;;;;7.59;100.00;99041.81;6279108;20;2858610;-47
2024/03/03 03:20:22;;;;;;;;;50.33;40.00;;;;;7.65;100.00;99036.09;6312666;20;2869110;-47
2024/03/03 03:22:51;;;;;;;;;48.00;39.50;;;;;7.60;100.00;99035.50;6310124;20;2850286;-46
2024/03/03 03:25:21;;;;;;;;;50.33;39.33;;;;;7.61;100.00;99042.56;6278969;20;3624229;-51
2024/03/03 03:27:49;;;;;;;;;40.67;36.67;;;;;7.56;100.00;99043.81;6314906;20;3599200;-53
2024/03/03 03:30:19;;;;;;;;;44.67;39.00;;;;;7.75;100.00;99044.41;6279144;20;3614915;-52
2024/03/03 03:32:48;;;;;;;;;44.33;40.00;;;;;7.55;100.00;99044.75;6311299;20;3602550;-48
2024/03/03 03:35:18;;;;;;;;;48.00;38.67;;;;;7.54;100.00;99043.88;6277164;20;2854653;-50
2024/03/03 03:37:48;;;;;;;;;42.67;38.00;;;;;7.30;100.00;99038.19;6311026;20;3601283;-49
2024/03/03 03:40:17;;;;;;;;;46.67;38.00;;;;;7.40;100.00;99047.38;6308441;20;2858703;-47
2024/03/03 03:42:47;;;;;;;;;45.33;38.67;;;;;7.38;100.00;99046.59;6311457;20;3617961;-47
2024/03/03 03:45:17;;;;;;;;;48.67;39.00;;;;;7.28;100.00;99044.56;6308385;20;2859852;-46
2024/03/03 03:47:46;;;;;;;;;45.67;38.00;;;;;7.32;100.00;99049.66;6312066;20;2870680;-47
2024/03/03 03:50:16;;;;;;;;;44.33;36.33;;;;;7.31;100.00;99049.72;6310781;20;2863956;-46
2024/03/03 03:52:45;;;;;;;;;47.00;37.67;;;;;7.23;100.00;99050.16;6314297;20;3618016;-48
2024/03/03 03:55:14;;;;;;;;;42.00;36.33;;;;;7.28;100.00;99047.25;6274838;20;2862786;-49
2024/03/03 03:57:43;;;;;;;;;45.67;37.33;;;;;7.28;100.00;99049.91;6314014;20;3589902;-47
2024/03/03 04:00:13;;;;;;;;;48.00;38.50;;;;;7.11;100.00;99049.09;6276400;20;2859802;-46
2024/03/03 04:02:42;;;;;;;;;45.67;39.33;;;;;7.21;100.00;99049.38;6278755;20;2855525;-47
2024/03/03 04:05:14;;;;;;;;;47.00;40.50;;;;;7.41;100.00;99045.56;6305961;20;2851469;-45
2024/03/03 04:07:43;;;;;;;;;48.00;40.00;;;;;7.31;100.00;99039.91;6274536;20;2845048;-46
2024/03/03 04:10:11;;;;;;;;;49.00;41.00;;;;;7.01;100.00;99034.53;6276481;20;2494025;-46
2024/03/03 04:12:38;;;;;;;;;11.00;9.50;;;;;7.44;100.00;99038.22;6279501;20;2782678;-48
2024/03/03 04:15:08;;;;;;;;;48.00;39.50;;;;;7.32;100.00;99035.41;6278211;20;2850259;-46
2024/03/03 04:17:36;;;;;;;;;41.67;38.33;;;;;7.06;100.00;99035.13;6281852;20;3566959;-45
2024/03/03 04:20:07;;;;;;;;;47.00;39.67;;;;;7.00;100.00;99031.03;6312415;20;3605493;-48
2024/03/03 04:22:35;;;;;;;;;54.00;42.00;;;;;7.26;100.00;99032.16;6278166;20;2858639;-45
2024/03/03 04:25:06;;;;;;;;;53.67;40.00;;;;;6.90;100.00;99024.47;6276907;20;3613820;-48
2024/03/03 04:27:39;;;;;;;;;53.33;43.67;;;;;7.07;100.00;99020.84;6309761;20;2861795;-45
2024/03/03 04:30:09;;;;;;;;;56.00;43.33;;;;;7.07;100.00;99020.84;6315719;20;3605451;-46
2024/03/03 04:32:39;;;;;;;;;52.33;42.00;;;;;7.15;100.00;99015.91;6276831;20;2851530;-53
2024/03/03 04:35:08;;;;;;;;;52.00;42.50;;;;;7.33;100.00;99021.97;6306084;20;2841946;-47
2024/03/03 04:37:37;;;;;;;;;50.67;40.00;;;;;7.15;100.00;99018.56;6277785;20;2866978;-50
2024/03/03 04:40:08;;;;;;;;;49.50;41.50;;;;;7.34;100.00;99022.84;6310364;20;2844090;-45
2024/03/03 04:42:36;;;;;;;;;52.00;45.00;;;;;7.18;100.00;99018.38;6278313;20;2859673;-46
2024/03/03 04:45:07;;;;;;;;;50.00;41.00;;;;;6.97;100.00;99003.63;6275110;20;2851453;-47
2024/03/03 04:47:36;;;;;;;;;48.00;40.00;;;;;7.07;100.00;99012.81;6277826;20;2856571;-46
2024/03/03 04:50:07;;;;;;;;;48.50;39.50;;;;;7.10;100.00;99015.31;6278000;20;2858754;-46
2024/03/03 04:52:37;;;;;;;;;47.00;40.50;;;;;7.00;100.00;99015.00;6276839;20;2845207;-45
2024/03/03 04:55:05;;;;;;;;;49.00;42.00;;;;;7.12;100.00;99023.25;6274366;20;2490946;-47
2024/03/03 04:57:33;;;;;;;;;49.50;41.50;;;;;7.24;100.00;99027.84;6275729;20;2500346;-45
2024/03/03 05:00:08;;;;;;;;;51.00;41.00;;;;;7.37;100.00;99036.88;6278154;20;2858591;-46
2024/03/03 05:02:36;;;;;;;;;51.50;41.00;;;;;7.68;100.00;99040.38;6275180;20;2496158;-46
2024/03/03 05:05:06;;;;;;;;;48.00;40.00;;;;;7.24;100.00;99039.41;6276318;20;2849293;-50
2024/03/03 05:07:35;;;;;;;;;51.50;43.50;;;;;7.20;100.00;99035.19;6277956;20;2850351;-47
2024/03/03 05:10:06;;;;;;;;;50.50;41.50;;;;;7.22;100.00;99041.31;6278872;20;2850417;-45
2024/03/03 05:12:36;;;;;;;;;53.00;42.00;;;;;6.99;100.00;99041.78;6277162;20;2867096;-45
2024/03/03 05:15:05;;;;;;;;;48.00;41.50;;;;;7.09;100.00;99034.09;6307214;20;2835729;-45
2024/03/03 05:17:34;;;;;;;;;46.50;40.50;;;;;7.00;100.00;99035.47;6276811;20;2832598;-48
2024/03/03 05:20:05;;;;;;;;;55.00;43.00;;;;;7.21;100.00;99044.06;6277871;20;2872873;-47
2024/03/03 05:22:34;;;;;;;;;47.00;39.50;;;;;7.44;100.00;99054.25;6276098;20;2841926;-47
2024/03/03 05:25:04;;;;;;;;;59.67;44.00;;;;;7.34;100.00;99050.38;6275570;20;3628784;-47
2024/03/03 05:27:33;;;;;;;;;47.50;42.00;;;;;6.92;100.00;99043.06;6301811;20;2837767;-45
2024/03/03 05:30:03;;;;;;;;;48.50;41.50;;;;;6.97;100.00;99039.19;6278751;20;2829885;-46
2024/03/03 05:32:33;;;;;;;;;57.00;44.00;;;;;6.82;100.00;99024.91;6274415;20;3625371;-46
2024/03/03 05:35:03;;;;;;;;;51.00;43.00;;;;;6.64;100.00;99023.28;6307408;20;2860731;-46
2024/03/03 05:37:32;;;;;;;;;53.00;40.00;;;;;7.45;100.00;99041.75;6307793;20;2862786;-47
2024/03/03 05:40:01;;;;;;;;;47.00;40.00;;;;;7.24;100.00;99043.88;6277900;20;2854432;-45
2024/03/03 05:42:29;;;;;;;;;52.00;41.50;;;;;7.53;100.00;99050.19;6277627;20;2845054;-45
2024/03/03 05:44:58;;;;;;;;;50.50;43.50;;;;;7.06;100.00;99047.59;6274364;20;2854235;-47
2024/03/03 05:47:27;;;;;;;;;49.00;41.00;;;;;6.98;100.00;99042.72;6276991;20;2844162;-45
2024/03/03 05:49:55;;;;;;;;;63.00;47.00;;;;;6.81;100.00;99036.53;6275998;20;2599195;-45
2024/03/03 05:52:25;;;;;;;;;51.67;40.67;;;;;7.04;100.00;99037.03;6308250;20;2867068;-45
2024/03/03 05:54:55;;;;;;;;;58.67;45.67;;;;;7.04;100.00;99039.69;6304896;20;3625284;-47
2024/03/03 05:57:24;;;;;;;;;55.33;44.00;;;;;7.06;100.00;99050.25;6307419;20;2873213;-46
2024/03/03 05:59:54;;;;;;;;;56.67;44.67;;;;;7.45;100.00;99052.44;6307232;20;2869193;-46
2024/03/03 06:02:23;;;;;;;;;49.00;40.50;;;;;7.36;100.00;99053.84;6305276;20;2859850;-47
2024/03/03 06:04:51;;;;;;;;;52.00;42.50;;;;;7.15;100.00;99057.75;6274411;20;2847180;-45
2024/03/03 06:07:21;;;;;;;;;51.67;43.33;;;;;6.89;100.00;99051.25;6276852;20;2869083;-48
2024/03/03 06:09:50;;;;;;;;;57.67;44.33;;;;;7.18;100.00;99054.91;6307461;20;3620068;-46
2024/03/03 06:12:20;;;;;;;;;53.67;45.33;;;;;7.70;100.00;99067.88;6308646;20;2863849;-45
2024/03/03 06:14:51;;;;;;;;;60.33;46.67;;;;;7.31;100.00;99065.75;6307883;20;2870172;-46
2024/03/03 06:17:21;;;;;;;;;53.00;41.33;;;;;7.13;100.00;99063.19;6308779;20;2866934;-47
2024/03/03 06:19:53;;;;;;;;;55.00;42.00;;;;;7.32;100.00;99068.34;6307261;20;3620125;-46
2024/03/03 06:22:21;;;;;;;;;47.00;40.50;;;;;7.67;100.00;99073.41;6306618;20;2844057;-45
2024/03/03 06:24:51;;;;;;;;;53.67;44.67;;;;;7.36;100.00;99069.00;6272352;20;2862925;-50
2024/03/03 06:27:20;;;;;;;;;57.00;46.33;;;;;7.28;100.00;99076.59;6306491;20;3618026;-45
2024/03/03 06:29:50;;;;;;;;;60.00;45.00;;;;;7.10;100.00;99076.72;6307941;20;3608695;-45
2024/03/03 06:32:19;;;;;;;;;55.67;45.00;;;;;7.05;100.00;99073.44;6306750;20;2861856;-47
2024/03/03 06:34:50;;;;;;;;;52.50;42.00;;;;;7.10;100.00;99074.03;6305434;20;2855446;-45
2024/03/03 06:37:19;;;;;;;;;55.00;44.33;;;;;7.20;100.00;99069.91;6275809;20;2871196;-46
2024/03/03 06:39:50;;;;;;;;;54.00;43.67;;;;;7.38;100.00;99067.97;6312548;20;2863825;-47
2024/03/03 06:42:19;;;;;;;;;54.50;45.50;;;;;7.58;100.00;99073.94;6311707;20;2837808;-47
2024/03/03 06:44:49;;;;;;;;;54.67;44.67;;;;;7.68;100.00;99070.63;6279200;20;3612860;-46
2024/03/03 06:47:18;;;;;;;;;58.00;45.33;;;;;7.42;100.00;99068.63;6312457;20;2857693;-46
2024/03/03 06:49:48;;;;;;;;;53.33;43.33;;;;;7.35;100.00;99067.31;6312562;20;3608707;-45
2024/03/03 06:52:18;;;;;;;;;56.33;47.00;;;;;7.34;100.00;99070.91;6310477;20;2859901;-46
2024/03/03 06:54:48;;;;;;;;;57.00;45.33;;;;;7.43;100.00;99070.38;6311906;20;3623235;-46
2024/03/03 06:57:18;;;;;;;;;56.33;45.33;;;;;7.33;100.00;99069.19;6311341;20;3611200;-45
2024/03/03 06:59:47;;;;;;;;;54.67;45.33;;;;;7.42;100.00;99064.16;6310452;20;2864486;-49
2024/03/03 07:02:17;;;;;;;;;56.00;45.00;;;;;7.23;100.00;99068.84;6311860;20;2848358;-48
2024/03/03 07:04:46;;;;;;;;;87.33;69.67;;;;;7.21;100.00;99058.28;6279269;20;3682568;-48
2024/03/03 07:07:16;;;;;;;;;64.33;51.00;;;;;7.78;100.00;99067.41;6280503;20;3613951;-46
2024/03/03 07:09:45;;;;;;;;;62.67;47.67;;;;;7.51;100.00;99068.13;6311405;20;3623213;-46
2024/03/03 07:12:15;;;;;;;;;62.67;48.33;;;;;7.35;100.00;99067.31;6311456;20;3622153;-46
2024/03/03 07:14:45;;;;;;;;;68.00;51.00;;;;;7.42;100.00;99063.28;6310182;20;3632557;-49
2024/03/03 07:17:14;;;;;;;;;65.67;52.00;;;;;7.29;100.00;99072.97;6311524;20;3624247;-44
2024/03/03 07:19:44;;;;;;;;;54.00;44.00;;;;;7.36;100.00;99074.34;6312693;20;2860778;-45
2024/03/03 07:22:13;;;;;;;;;56.33;43.00;;;;;7.44;100.00;99066.75;6311727;20;3627422;-47
2024/03/03 07:24:43;;;;;;;;;56.33;46.67;;;;;7.48;100.00;99074.50;6309530;20;3609620;-46
2024/03/03 07:27:12;;;;;;;;;51.50;43.50;;;;;7.02;100.00;99071.81;6309654;20;2845116;-48
2024/03/03 07:29:44;;;;;;;;;54.67;44.33;;;;;7.33;100.00;99074.53;6279144;20;2850344;-46
2024/03/03 07:32:13;;;;;;;;;54.00;44.00;;;;;7.33;100.00;99080.72;6311329;20;2860704;-47
2024/03/03 07:34:44;;;;;;;;;52.33;45.00;;;;;7.35;100.00;99077.97;6308093;20;2869245;-47
2024/03/03 07:37:12;;;;;;;;;58.00;46.00;;;;;7.52;100.00;99077.84;6310544;20;2862781;-45
2024/03/03 07:39:42;;;;;;;;;51.00;43.00;;;;;7.06;100.00;99083.19;6278015;20;2873427;-48
2024/03/03 07:42:12;;;;;;;;;54.33;44.33;;;;;7.22;100.00;99097.38;6300912;20;2862842;-47
2024/03/03 07:44:41;;;;;;;;;58.67;47.00;;;;;7.81;100.00;99101.97;6307342;20;2863904;-47
2024/03/03 07:47:11;;;;;;;;;51.00;41.67;;;;;7.40;100.00;99106.13;6309210;20;2872342;-48
2024/03/03 07:49:42;;;;;;;;;53.33;43.00;;;;;7.67;100.00;99111.66;6309931;20;2868071;-47
2024/03/03 07:52:12;;;;;;;;;55.00;43.00;;;;;8.00;100.00;99107.91;6312683;20;3615981;-47
2024/03/03 07:54:42;;;;;;;;;51.33;42.67;;;;;7.55;100.00;99109.69;6308814;20;2859707;-47
2024/03/03 07:57:12;;;;;;;;;55.67;44.33;;;;;7.37;100.00;99106.31;6311872;20;2869154;-46
2024/03/03 07:59:41;;;;;;;;;54.67;43.33;;;;;7.69;100.00;99109.78;6311202;20;2868109;-46
2024/03/03 08:02:11;;;;;;;;;57.67;45.00;;;;;8.14;100.00;99115.13;6308301;20;3620056;-46
2024/03/03 08:04:40;;;;;;;;;53.00;45.00;;;;;7.53;100.00;99116.09;6307869;20;2844033;-48
2024/03/03 08:07:09;;;;;;;;;63.00;48.67;;;;;7.61;100.00;99112.03;6278633;20;3646137;-46
2024/03/03 08:09:39;;;;;;;;;53.67;43.33;;;;;7.41;100.00;99104.31;6310036;20;2860888;-47
2024/03/03 08:12:08;;;;;;;;;49.33;39.00;;;;;7.57;100.00;99113.16;6309487;20;3617351;-46
2024/03/03 08:14:38;;;;;;;;;55.67;43.00;;;;;7.46;100.00;99104.91;6309288;20;2872350;-46
2024/03/03 08:17:07;;;;;;;;;50.00;42.50;;;;;7.58;100.00;99101.53;6310572;20;2843121;-47
2024/03/03 08:19:36;;;;;;;;;53.67;42.33;;;;;7.88;100.00;99116.69;6281478;20;2871101;-45
2024/03/03 08:22:05;;;;;;;;;49.50;42.00;;;;;7.98;100.00;99106.28;6311818;20;2841005;-46
2024/03/03 08:24:33;;;;;;;;;55.00;46.00;;;;;7.99;100.00;99116.06;6274075;20;2500303;-47
2024/03/03 08:27:03;;;;;;;;;55.00;46.33;;;;;7.96;100.00;99111.75;6277563;20;2858662;-45
2024/03/03 08:29:32;;;;;;;;;55.67;44.00;;;;;7.72;100.00;99110.56;6309198;20;3609672;-46
2024/03/03 08:32:03;;;;;;;;;52.00;42.33;;;;;7.69;100.00;99108.91;6308413;20;2856540;-46
2024/03/03 08:34:34;;;;;;;;;48.50;40.00;;;;;7.87;100.00;99106.94;6304621;20;2851439;-49
2024/03/03 08:37:03;;;;;;;;;48.00;41.00;;;;;7.57;100.00;99105.13;6282788;20;3519016;-48
2024/03/03 08:39:31;;;;;;;;;48.00;40.00;;;;;7.89;100.00;99107.72;6309191;20;2840910;-45
2024/03/03 08:42:01;;;;;;;;;55.67;45.33;;;;;8.01;100.00;99103.47;6276961;20;3617088;-46
2024/03/03 08:44:31;;;;;;;;;58.00;48.00;;;;;7.68;100.00;99108.03;6308421;20;2744273;-46
2024/03/03 08:47:00;;;;;;;;;62.00;49.00;;;;;8.17;100.00;99090.03;6308222;20;3616933;-44
2024/03/03 08:49:30;;;;;;;;;56.33;46.33;;;;;7.98;100.00;99099.16;6309734;20;2870179;-49
2024/03/03 08:52:05;;;;;;;;;55.00;45.00;;;;;8.13;100.00;99098.19;6308779;20;2842022;-46
2024/03/03 08:54:37;;;;;;;;;53.00;43.67;;;;;8.05;100.00;99095.13;6276182;20;3626015;-46
2024/03/03 08:57:06;;;;;;;;;56.00;43.00;;;;;8.22;100.00;99101.28;6308994;20;3622237;-44
2024/03/03 08:59:38;;;;;;;;;57.67;45.33;;;;;8.04;100.00;99096.09;6307601;20;2858643;-46
2024/03/03 09:02:08;;;;;;;;;59.67;48.33;;;;;8.50;100.00;99105.81;6307351;20;3620169;-49
2024/03/03 09:04:38;;;;;;;;;57.33;44.33;;;;;8.11;100.00;99100.13;6306596;20;2867205;-45
2024/03/03 09:07:08;;;;;;;;;54.67;45.00;;;;;7.86;100.00;99094.53;6308608;20;2863946;-46
2024/03/03 09:09:38;;;;;;;;;52.33;43.67;;;;;8.01;100.00;99104.31;6308104;20;2862917;-45
2024/03/03 09:12:11;;;;;;;;;54.33;43.33;;;;;8.00;100.00;99105.25;6308929;20;2861787;-46
2024/03/03 09:14:41;;;;;;;;;59.33;45.33;;;;;7.67;100.00;99110.81;6305755;20;3617989;-45
2024/03/03 09:17:10;;;;;;;;;58.00;46.33;;;;;7.97;100.00;99102.75;6310058;20;3616304;-44
2024/03/03 09:19:40;;;;;;;;;58.67;47.67;;;;;7.93;100.00;99097.72;6309292;20;3610729;-44
2024/03/03 09:22:09;;;;;;;;;57.33;43.67;;;;;8.21;100.00;99099.56;6308375;20;3635727;-46
2024/03/03 09:24:44;;;;;;;;;58.33;48.33;;;;;8.17;100.00;99103.38;6308370;20;3619262;-48
2024/03/03 09:27:14;;;;;;;;;56.33;46.33;;;;;8.26;100.00;99103.66;6307989;20;2869119;-49
2024/03/03 09:29:43;;;;;;;;;50.67;43.33;;;;;8.59;100.00;99109.75;6310983;20;2864935;-45
2024/03/03 09:32:13;;;;;;;;;48.33;40.67;;;;;8.60;100.00;99103.44;6309224;20;2867140;-48
2024/03/03 09:34:42;;;;;;;;;60.00;47.00;;;;;8.86;100.00;99102.63;6306871;20;3646131;-48
2024/03/03 09:37:13;;;;;;;;;54.00;44.33;;;;;8.53;100.00;99111.84;6308537;20;2865020;-46
2024/03/03 09:39:42;;;;;;;;;55.00;44.00;;;;;8.76;100.00;99109.53;6309204;20;3611721;-47
2024/03/03 09:42:12;;;;;;;;;55.00;45.00;;;;;9.19;100.00;99109.47;6310122;20;3615881;-46
2024/03/03 09:44:43;;;;;;;;;59.33;45.33;;;;;8.82;100.00;99106.47;6308048;20;3639860;-45
2024/03/03 09:47:13;;;;;;;;;54.00;46.00;;;;;8.79;100.00;99101.28;6306508;20;2853635;-49
2024/03/03 09:49:43;;;;;;;;;58.33;46.33;;;;;9.17;100.00;99096.16;6273380;20;3612760;-47
2024/03/03 09:52:14;;;;;;;;;58.33;47.00;;;;;9.02;100.00;99097.16;6304915;20;3623203;-44
2024/03/03 09:54:43;;;;;;;;;63.00;48.00;;;;;8.82;100.00;99103.81;6308291;20;3637743;-46
2024/03/03 09:57:15;;;;;;;;;58.67;47.33;;;;;8.84;100.00;99099.19;6274877;20;3614894;-45
2024/03/03 09:59:51;;;;;;;;;60.33;47.33;;;;;8.74;100.00;99098.06;6305745;20;3627459;-45
2024/03/03 10:02:21;;;;;;;;;66.67;51.67;;;;;9.00;100.00;99094.59;6309582;20;3620099;-46
2024/03/03 10:04:56;;;;;;;;;59.67;47.00;;;;;9.05;100.00;99094.25;6272705;20;3625389;-45
2024/03/03 10:07:26;;;;;;;;;57.00;46.33;;;;;9.54;100.00;99095.56;6274056;20;3615877;-45
2024/03/03 10:10:02;;;;;;;;;61.33;47.67;;;;;8.86;100.00;99102.63;6307195;20;3627353;-45
2024/03/03 10:12:33;;;;;;;;;58.67;47.00;;;;;9.09;100.00;99092.28;6306178;20;3616992;-44
2024/03/03 10:15:07;;;;;;;;;64.33;50.00;;;;;9.64;100.00;99093.97;6305585;20;3629424;-46
2024/03/03 10:17:36;;;;;;;;;56.00;44.67;;;;;8.93;100.00;99090.56;6304405;20;3621094;-47
2024/03/03 10:20:08;;;;;;;;;57.00;46.33;;;;;8.95;100.00;99088.66;6307419;20;2869124;-47
2024/03/03 10:22:40;;;;;;;;;58.33;47.00;;;;;9.36;100.00;99093.13;6307332;20;3603409;-46
2024/03/03 10:25:15;;;;;;;;;51.50;44.00;;;;;9.36;100.00;99085.09;6307418;20;2851355;-46
2024/03/03 10:27:48;;;;;;;;;57.67;46.67;;;;;9.32;100.00;99086.28;6276087;20;3621160;-46
2024/03/03 10:30:21;;;;;;;;;63.00;49.33;;;;;9.41;100.00;99087.47;6308632;20;3624271;-46
2024/03/03 10:33:04;;;;;;;;;57.00;47.00;;;;;9.81;100.00;99091.00;6275604;20;3610678;-46
2024/03/03 10:35:34;;;;;;;;;62.75;49.00;;;;;9.65;100.00;99084.97;6305612;20;3630568;-46
2024/03/03 10:38:04;;;;;;;;;54.00;44.00;;;;;9.73;100.00;99074.56;6306807;20;3612776;-48
2024/03/03 10:40:33;;;;;;;;;58.67;47.00;;;;;9.86;100.00;99077.28;6307909;20;3622141;-47
2024/03/03 10:43:02;;;;;;;;;57.33;47.00;;;;;10.30;100.00;99068.88;6305016;20;3606618;-45
2024/03/03 10:45:32;;;;;;;;;70.33;56.00;;;;;10.50;100.00;99062.06;6272341;20;3622157;-46
2024/03/03 10:48:01;;;;;;;;;65.00;52.00;;;;;11.03;100.00;99052.94;6309212;20;3615935;-47
2024/03/03 10:50:32;;;;;;;;;64.00;50.67;;;;;11.08;100.00;99045.38;6273464;20;2869243;-48
2024/03/03 10:53:03;;;;;;;;;60.00;48.00;;;;;10.45;100.00;99044.59;6305016;20;3624245;-49
2024/03/03 10:55:33;;;;;;;;;57.67;46.00;;;;;10.93;100.00;99037.50;6304706;20;3604517;-50
2024/03/03 10:58:04;;;;;;;;;56.67;46.00;;;;;10.62;100.00;99038.88;6304313;20;3611808;-48
2024/03/03 11:00:36;;;;;;;;;58.67;47.00;;;;;10.92;100.00;99032.22;6273175;20;3619010;-48
2024/03/03 11:03:10;;;;;;;;;54.00;45.00;;;;;11.23;100.00;99032.66;6302475;20;2858799;-49
2024/03/03 11:05:42;;;;;;;;;53.67;44.67;;;;;10.74;100.00;99021.88;6304097;20;2847314;-48
2024/03/03 11:08:15;;;;;;;;;53.67;44.00;;;;;12.15;100.00;99036.38;6310203;20;3623247;-47
2024/03/03 11:10:45;;;;;;;;;58.67;46.67;;;;;12.10;100.00;99025.13;6273967;20;3629424;-47
2024/03/03 11:13:16;;;;;;;;;50.67;42.00;;;;;11.48;100.00;99027.16;6271851;20;3608589;-47